Flight Track Log - Related Links

Times and Time Zones

All times are in EDT time to prevent confusion due to time zone crossing. See the N27XP flight status page for this flight to view local times or setup timezone preferences in your user account.

Time Position Orientation Groundspeed Altitude Reporting Facility
EDT Latitude Longitude Course Direction KTS MPH feet Rate Location/Type
Sun 02:59:53 PM 35.7808 -84.0286 102° East 185 213 2,900  Level Atlanta Center
Sun 03:00:53 PM 35.7350 -84.0361 188° South 170 196 6,500 3,050 Climbing Atlanta Center
Sun 03:01:53 PM 35.6975 -84.0517 199° South 164 189 9,000 1,800 Climbing Atlanta Center
Sun 03:02:53 PM 35.6639 -84.0056 132° Southeast 152 175 10,100 900 Climbing Atlanta Center
Sun 03:03:53 PM 35.6514 -83.9136 99° East 205 236 10,800 1,550 Climbing Atlanta Center
Sun 03:04:53 PM 35.6389 -83.8114 99° East 246 283 13,200 2,150 Climbing Atlanta Center
Sun 03:05:00 PM 35.7437 -83.3675 102° East  Level Estimated
Sun 03:05:53 PM 35.6219 -83.6964 100° East 303 349 15,100  Level Atlanta Center
Sun 03:06:53 PM 35.6047 -83.5764 100° East 340 391 17,200 2,150 Climbing Atlanta Center
Sun 03:07:53 PM 35.5875 -83.4514 100° East 357 411 19,400 1,900 Climbing Atlanta Center
Sun 03:08:53 PM 35.5681 -83.3264 101° East 367 422 21,000 1,000 Climbing Atlanta Center
Sun 03:09:53 PM 35.5464 -83.2042 102° East 380 437 21,400 800 Climbing Atlanta Center
Sun 03:10:53 PM 35.5244 -83.0614 101° East 412 474 22,600 800 Climbing Atlanta Center
Sun 03:11:53 PM 35.5044 -82.9164 100° East 427 491 23,000 200 Climbing Atlanta Center
Sun 03:12:53 PM 35.4800 -82.7661 101° East 441 507 23,000  Level Atlanta Center
Sun 03:13:53 PM 35.4575 -82.6136 100° East 449 517 23,000  Level Atlanta Center
Sun 03:14:53 PM 35.4369 -82.4661 100° East 449 517 23,000  Level Atlanta Center
Sun 03:15:53 PM 35.4142 -82.3161 101° East 449 517 23,000  Level Atlanta Center
Sun 03:16:53 PM 35.3889 -82.1639 101° East 449 517 23,000  Level Atlanta Center
Sun 03:17:53 PM 35.3656 -82.0089 100° East 449 517 23,000  Level Atlanta Center
Sun 03:18:53 PM 35.3422 -81.8594 101° East 449 517 23,000  Level Atlanta Center
Sun 03:19:53 PM 35.3144 -81.7072 103° East 449 517 23,000  Level Atlanta Center
Sun 03:20:53 PM 35.2906 -81.5553 101° East 449 517 23,000  Level Atlanta Center
Sun 03:21:53 PM 35.2622 -81.4036 103° East 449 517 23,000 -650 Level Atlanta Center
Sun 03:22:53 PM 35.2381 -81.2492 101° East 449 517 21,700 -1,600 Descending Atlanta Center
Sun 03:23:53 PM 35.2136 -81.1000 101° East 449 517 19,800 -1,350 Descending Atlanta Center
Sun 03:24:53 PM 35.1914 -80.9561 101° East 449 517 19,000 -400 Descending Atlanta Center
Sun 03:25:53 PM 35.1897 -80.8136 91° East 431 496 19,000  Level Atlanta Center
Sun 03:26:53 PM 35.1944 -80.6764 88° East 414 476 19,000 -467 Level Atlanta Center
Sun 03:27:23 PM 35.1983 -80.5947 87° East 401 461 18,300 -1,571 Descending Atlanta Center
Sun 03:27:35 PM 35.1975 -80.5644 92° East 403 464 17,900 -2,200 Descending Atlanta Center
Sun 03:27:53 PM 35.2006 -80.5236 85° East 409 471 17,200 -2,164 Descending Atlanta Center
Sun 03:28:36 PM 35.2017 -80.4192 89° East 425 489 15,700 -2,100 Descending Atlanta Center
Sun 03:28:53 PM 35.2025 -80.3786 89° East 409 471 15,100 -2,361 Descending Atlanta Center
Sun 03:29:37 PM 35.2058 -80.2794 88° East 413 475 13,300 -6,100 Descending Atlanta Center
Sun 03:29:53 PM 35.2047 -80.2439 92° East 409 471 9,000 -3,313 Descending Atlanta Center
Sun 03:30:44 PM 35.2078 -80.1394 88° East 351 404 9,600  Climbing Atlanta Center
Sun 03:31:53 PM 35.2081 -80.0225 90° East 336 387 9,000 -279 Descending Atlanta Center
Sun 03:32:53 PM 35.2092 -79.9233 89° East 324 373 9,000  Level Atlanta Center
Sun 03:33:53 PM 35.2094 -79.8114 90° East 324 373 9,000 -50 Level Atlanta Center
Sun 03:34:53 PM 35.2139 -79.7019 87° East 318 366 8,900  Descending Atlanta Center
Sun 03:35:53 PM 35.2375 -79.6600 55° Northeast 297 342 9,000 50 Climbing Atlanta Center
Sun 03:36:53 PM 35.2347 -79.5253 91° East 276 318 9,000  Level Atlanta Center

Login

Don't have an account? Register now (free) for customized features, flight alerts, and more!